Time;durP1;ratioP1;P1;durP2;ratioP2;P2;SDS_P1;SDS_P2;PMS_P1;PMS_P2;Temp;Humidity;BMP_temperature;BMP_pressure;BME280_temperature;BME280_humidity;BME280_pressure;Samples;Min_cycle;Max_cycle;Signal;HPM_P1;HPM_P2
2023/04/17 00:01:12;;;;;;;2.77;1.50;;;7.10;99.90;;;;;;5053831;28;20495;-55
2023/04/17 00:03:39;;;;;;;1.60;1.20;;;7.20;99.90;;;;;;5053833;28;20858;-54
2023/04/17 00:06:06;;;;;;;2.13;1.47;;;7.20;99.90;;;;;;5053993;28;20445;-54
2023/04/17 00:08:33;;;;;;;1.90;1.60;;;7.30;99.90;;;;;;5053996;28;20516;-54
2023/04/17 00:11:00;;;;;;;4.47;1.87;;;7.30;99.90;;;;;;5053530;28;20496;-54
2023/04/17 00:13:27;;;;;;;2.10;1.53;;;7.30;99.90;;;;;;5053476;28;21013;-55
2023/04/17 00:15:55;;;;;;;1.43;1.33;;;7.30;99.90;;;;;;5053596;28;20496;-54
2023/04/17 00:18:22;;;;;;;1.70;1.60;;;7.30;99.90;;;;;;5053454;28;20537;-55
2023/04/17 00:20:49;;;;;;;2.17;1.60;;;7.20;99.90;;;;;;5053578;28;20932;-54
2023/04/17 00:23:16;;;;;;;1.90;1.57;;;7.20;99.90;;;;;;5053205;28;20477;-54
2023/04/17 00:25:43;;;;;;;3.00;1.90;;;7.30;99.90;;;;;;5053975;28;20814;-54
2023/04/17 00:28:10;;;;;;;2.77;2.00;;;7.20;99.90;;;;;;5053383;28;20516;-54
2023/04/17 00:30:36;;;;;;;1.77;1.10;;;7.20;99.90;;;;;;5053488;28;20441;-54
2023/04/17 00:33:05;;;;;;;2.00;1.37;;;6.90;99.90;;;;;;5053547;28;20966;-55
2023/04/17 00:35:32;;;;;;;2.40;1.30;;;6.80;99.90;;;;;;5053570;28;20963;-54
2023/04/17 00:37:59;;;;;;;1.60;1.20;;;6.90;99.90;;;;;;5052548;28;20493;-54
2023/04/17 00:40:25;;;;;;;1.57;1.27;;;7.00;99.90;;;;;;5053043;28;20945;-54
2023/04/17 00:42:55;;;;;;;2.27;1.60;;;6.90;99.90;;;;;;5053492;28;20480;-54
2023/04/17 00:45:22;;;;;;;2.60;1.53;;;6.70;99.90;;;;;;5053314;28;20441;-54
2023/04/17 00:47:50;;;;;;;2.10;1.90;;;6.60;99.90;;;;;;5052868;28;20508;-54
2023/04/17 00:50:18;;;;;;;2.10;1.90;;;6.70;99.90;;;;;;5052696;28;20446;-55
2023/04/17 00:52:46;;;;;;;2.30;1.77;;;6.50;99.90;;;;;;5053094;28;20484;-54
2023/04/17 00:55:14;;;;;;;2.40;2.17;;;6.30;99.90;;;;;;5052770;28;20476;-55
2023/04/17 00:57:42;;;;;;;2.33;2.10;;;6.20;99.90;;;;;;5052277;28;20465;-55
2023/04/17 01:00:10;;;;;;;2.63;2.30;;;6.40;99.90;;;;;;5052165;28;20445;-54
2023/04/17 01:02:37;;;;;;;2.60;2.03;;;6.40;99.90;;;;;;5053058;28;20453;-54
2023/04/17 01:05:05;;;;;;;4.03;2.77;;;6.50;99.90;;;;;;5053260;28;20446;-54
2023/04/17 01:07:33;;;;;;;2.20;1.43;;;6.80;99.90;;;;;;5052117;28;20548;-54
2023/04/17 01:10:00;;;;;;;2.70;2.00;;;6.70;99.90;;;;;;5052847;28;20904;-54
2023/04/17 01:12:27;;;;;;;1.97;1.87;;;6.70;99.90;;;;;;5052528;28;20472;-54
2023/04/17 01:14:55;;;;;;;2.13;1.97;;;6.80;99.90;;;;;;5052025;28;20480;-55
2023/04/17 01:17:24;;;;;;;4.50;2.57;;;6.90;99.90;;;;;;5052463;28;20500;-54
2023/04/17 01:19:52;;;;;;;2.40;1.90;;;6.90;99.90;;;;;;5052370;28;20480;-54
2023/04/17 01:22:19;;;;;;;2.70;1.70;;;6.90;99.90;;;;;;5052685;28;20527;-54
2023/04/17 01:24:48;;;;;;;1.90;1.60;;;6.70;99.90;;;;;;5052869;28;20478;-54
2023/04/17 01:27:15;;;;;;;1.90;1.80;;;6.40;99.90;;;;;;5052037;28;20523;-54
2023/04/17 01:29:43;;;;;;;3.27;2.33;;;6.30;99.90;;;;;;5051497;28;20564;-54
2023/04/17 01:32:10;;;;;;;2.80;2.27;;;6.30;99.90;;;;;;5052156;28;20442;-54
2023/04/17 01:34:37;;;;;;;2.77;2.57;;;6.40;99.90;;;;;;5051961;28;20520;-54
2023/04/17 01:37:04;;;;;;;3.33;3.03;;;6.40;99.90;;;;;;5051479;28;20438;-55
2023/04/17 01:39:31;;;;;;;2.90;2.60;;;6.30;99.90;;;;;;5051999;28;20528;-56
2023/04/17 01:41:59;;;;;;;2.67;2.47;;;6.40;99.90;;;;;;5052102;28;20484;-53
2023/04/17 01:44:26;;;;;;;3.20;2.90;;;6.70;99.90;;;;;;5052303;28;20457;-54
2023/04/17 01:46:53;;;;;;;2.70;2.47;;;6.80;99.90;;;;;;5051711;28;20524;-57
2023/04/17 01:49:20;;;;;;;2.67;2.47;;;6.90;99.90;;;;;;5051171;28;20921;-55
2023/04/17 01:51:47;;;;;;;3.87;2.47;;;7.00;99.90;;;;;;5052313;28;20521;-54
2023/04/17 01:54:14;;;;;;;3.20;2.90;;;7.00;99.90;;;;;;5052089;28;20536;-55
2023/04/17 01:56:41;;;;;;;3.00;2.73;;;6.80;99.90;;;;;;5051737;28;20495;-54
2023/04/17 01:59:09;;;;;;;3.23;2.90;;;6.80;99.90;;;;;;5051634;28;20500;-56
2023/04/17 02:01:36;;;;;;;4.30;3.00;;;6.40;99.90;;;;;;5051985;28;20535;-54
2023/04/17 02:04:03;;;;;;;3.03;2.70;;;6.70;99.90;;;;;;5052155;28;20503;-54
2023/04/17 02:06:30;;;;;;;2.50;2.30;;;6.60;99.90;;;;;;5051062;28;20527;-55
2023/04/17 02:08:57;;;;;;;3.77;3.37;;;6.50;99.90;;;;;;5051523;28;20488;-54
2023/04/17 02:11:25;;;;;;;3.30;3.00;;;6.50;99.90;;;;;;5051662;28;20450;-55
2023/04/17 02:13:52;;;;;;;2.80;2.60;;;6.70;99.90;;;;;;5051458;28;20455;-55
2023/04/17 02:16:21;;;;;;;2.97;2.50;;;6.80;99.90;;;;;;5051355;28;20450;-55
2023/04/17 02:18:48;;;;;;;3.73;2.73;;;6.70;99.90;;;;;;5051499;28;20556;-54
2023/04/17 02:21:15;;;;;;;3.10;2.57;;;6.60;99.90;;;;;;5051725;28;20528;-54
2023/04/17 02:23:42;;;;;;;4.30;2.60;;;6.60;99.90;;;;;;5051228;28;20449;-54
2023/04/17 02:26:09;;;;;;;3.20;2.60;;;6.80;99.90;;;;;;5051393;28;20469;-54
2023/04/17 02:28:36;;;;;;;3.40;2.70;;;6.90;99.90;;;;;;5050994;28;20531;-52
2023/04/17 02:31:06;;;;;;;2.33;2.13;;;6.90;99.90;;;;;;5051691;28;20474;-54
2023/04/17 02:33:35;;;;;;;2.53;2.33;;;7.00;99.90;;;;;;5051446;28;20460;-54
2023/04/17 02:36:02;;;;;;;3.50;2.43;;;6.90;99.90;;;;;;5050816;28;20821;-56
2023/04/17 02:38:29;;;;;;;3.33;2.80;;;6.90;99.90;;;;;;5050639;28;20524;-53
2023/04/17 02:40:56;;;;;;;2.97;2.67;;;6.90;99.90;;;;;;5051755;28;20823;-55
2023/04/17 02:43:23;;;;;;;5.30;3.43;;;7.00;99.90;;;;;;5050958;28;20936;-54
2023/04/17 02:45:50;;;;;;;2.97;2.70;;;7.00;99.90;;;;;;5051334;28;20441;-54
2023/04/17 02:48:18;;;;;;;3.17;2.90;;;7.00;99.90;;;;;;5050876;28;20479;-50
2023/04/17 02:50:46;;;;;;;3.53;2.63;;;6.90;99.90;;;;;;5050800;28;20520;-55
2023/04/17 02:53:13;;;;;;;3.97;2.70;;;6.60;99.90;;;;;;5050644;28;20493;-54
2023/04/17 02:55:40;;;;;;;5.60;2.50;;;6.60;99.90;;;;;;5051275;28;20544;-54
2023/04/17 02:58:07;;;;;;;3.83;3.10;;;6.60;99.90;;;;;;5050767;28;20574;-54
2023/04/17 03:00:34;;;;;;;3.30;3.00;;;6.50;99.90;;;;;;5051178;28;20478;-54
2023/04/17 03:03:01;;;;;;;3.73;3.37;;;6.40;99.90;;;;;;5050732;28;20929;-56
2023/04/17 03:05:30;;;;;;;3.40;3.10;;;6.40;99.90;;;;;;5050712;28;20449;-54
2023/04/17 03:07:59;;;;;;;4.33;3.90;;;6.60;99.90;;;;;;5050173;28;20975;-54
2023/04/17 03:10:26;;;;;;;4.63;4.13;;;6.70;99.90;;;;;;5051007;28;20481;-54
2023/04/17 03:12:53;;;;;;;4.87;4.47;;;6.70;99.90;;;;;;5050842;28;20524;-54
2023/04/17 03:15:20;;;;;;;5.60;4.47;;;6.70;99.90;;;;;;5050638;28;20529;-55
2023/04/17 03:17:47;;;;;;;3.73;3.43;;;6.80;99.90;;;;;;5053116;28;20501;-54
2023/04/17 03:20:15;;;;;;;4.10;3.70;;;6.80;99.90;;;;;;5055013;28;20916;-55
2023/04/17 03:22:42;;;;;;;4.20;3.90;;;6.80;99.90;;;;;;5055140;28;20479;-55
2023/04/17 03:25:10;;;;;;;4.23;3.83;;;6.40;99.90;;;;;;5055058;28;20473;-54
2023/04/17 03:27:37;;;;;;;5.00;4.43;;;6.20;99.90;;;;;;5054360;28;20556;-54
2023/04/17 03:30:06;;;;;;;5.80;4.50;;;6.20;99.90;;;;;;5054485;28;20477;-54
2023/04/17 03:32:32;;;;;;;4.63;4.07;;;6.20;99.90;;;;;;5054258;28;20955;-52
2023/04/17 03:34:59;;;;;;;5.30;4.80;;;6.40;99.90;;;;;;5054939;28;20477;-55
2023/04/17 03:37:26;;;;;;;3.97;3.63;;;6.40;99.90;;;;;;5054013;28;20507;-55
2023/04/17 03:39:54;;;;;;;4.73;4.33;;;6.60;99.90;;;;;;5054120;28;20538;-54
2023/04/17 03:42:22;;;;;;;4.80;4.40;;;6.70;99.90;;;;;;5054256;28;20847;-55
2023/04/17 03:44:49;;;;;;;4.70;4.20;;;6.60;99.90;;;;;;5054889;28;20519;-55
2023/04/17 03:47:16;;;;;;;4.43;4.03;;;6.40;99.90;;;;;;5054545;28;20485;-56
2023/04/17 03:49:43;;;;;;;5.33;4.87;;;6.40;99.90;;;;;;5053955;28;20504;-54
2023/04/17 03:52:10;;;;;;;5.10;4.70;;;6.50;99.90;;;;;;5054372;28;20979;-54
2023/04/17 03:54:37;;;;;;;8.97;5.00;;;6.50;99.90;;;;;;5054388;28;20520;-54
2023/04/17 03:57:04;;;;;;;6.13;5.20;;;6.10;99.90;;;;;;5053806;28;20456;-54
2023/04/17 03:59:33;;;;;;;5.80;5.30;;;6.10;99.90;;;;;;5054273;28;20449;-54
2023/04/17 04:02:00;;;;;;;4.90;4.47;;;6.00;99.90;;;;;;5054314;28;20540;-54
2023/04/17 04:04:27;;;;;;;5.70;5.20;;;6.20;99.90;;;;;;5054301;28;20812;-54
2023/04/17 04:06:56;;;;;;;5.77;5.10;;;6.50;99.90;;;;;;5053992;28;20553;-56
2023/04/17 04:09:23;;;;;;;4.80;4.40;;;6.50;99.90;;;;;;5053951;28;20569;-55
2023/04/17 04:11:50;;;;;;;5.40;4.90;;;6.60;99.90;;;;;;5053965;28;20490;-56
2023/04/17 04:14:17;;;;;;;5.50;5.00;;;6.50;99.90;;;;;;5053128;28;20441;-55
2023/04/17 04:16:45;;;;;;;4.83;4.33;;;6.40;99.90;;;;;;5052729;28;20481;-54
2023/04/17 04:19:12;;;;;;;4.47;4.17;;;6.40;99.90;;;;;;5053710;28;20493;-54
2023/04/17 04:21:40;;;;;;;5.40;5.00;;;6.40;99.90;;;;;;5053500;28;20481;-54
2023/04/17 04:24:08;;;;;;;5.67;5.10;;;6.50;99.90;;;;;;5053614;28;20437;-54
2023/04/17 04:26:36;;;;;;;6.20;5.60;;;6.60;99.90;;;;;;5052069;28;20456;-54
2023/04/17 04:29:03;;;;;;;7.73;5.90;;;6.60;99.90;;;;;;5051835;28;20481;-54
2023/04/17 04:31:30;;;;;;;5.67;5.10;;;6.60;99.90;;;;;;5053936;28;20441;-54
2023/04/17 04:34:00;;;;;;;8.43;7.73;;;6.60;99.90;;;;;;5053658;28;20499;-54
2023/04/17 04:36:28;;;;;;;6.53;6.03;;;6.70;99.90;;;;;;5052436;28;20457;-54
2023/04/17 04:38:58;;;;;;;8.60;6.43;;;6.60;99.90;;;;;;5052521;28;20461;-55
2023/04/17 04:41:25;;;;;;;5.73;5.10;;;6.70;99.90;;;;;;5053612;28;20461;-55
2023/04/17 04:43:53;;;;;;;6.30;5.43;;;6.70;99.90;;;;;;5053347;28;21013;-54
2023/04/17 04:46:20;;;;;;;7.07;5.87;;;6.70;99.90;;;;;;5051865;28;21811;-54
2023/04/17 04:48:47;;;;;;;8.10;6.07;;;6.30;99.90;;;;;;5052592;28;20556;-55
2023/04/17 04:51:17;;;;;;;9.97;6.10;;;6.30;99.90;;;;;;5051363;28;20512;-53
2023/04/17 04:53:44;;;;;;;6.27;5.37;;;6.30;99.90;;;;;;5052763;28;20541;-56
2023/04/17 04:56:11;;;;;;;5.93;4.80;;;6.30;99.90;;;;;;5052906;28;20952;-54
2023/04/17 04:58:38;;;;;;;5.30;4.70;;;6.40;99.90;;;;;;5053128;28;20929;-54
2023/04/17 05:01:06;;;;;;;5.27;4.77;;;6.60;99.90;;;;;;5050930;28;20462;-54
2023/04/17 05:03:33;;;;;;;4.40;4.00;;;6.40;99.90;;;;;;5052166;28;20475;-54
2023/04/17 05:06:00;;;;;;;5.23;4.83;;;6.50;99.90;;;;;;5050863;28;20466;-54
2023/04/17 05:08:28;;;;;;;6.90;4.33;;;6.40;99.90;;;;;;5051285;28;20531;-54
2023/04/17 05:10:55;;;;;;;5.47;4.97;;;6.20;99.90;;;;;;5052463;28;20920;-54
2023/04/17 05:13:22;;;;;;;4.60;4.20;;;6.40;99.90;;;;;;5051304;28;20525;-54
2023/04/17 05:15:49;;;;;;;4.53;4.13;;;6.50;99.90;;;;;;5051256;28;20935;-55
2023/04/17 05:18:16;;;;;;;4.10;3.70;;;6.60;99.90;;;;;;5051683;28;20466;-54
2023/04/17 05:20:43;;;;;;;4.90;3.80;;;6.60;99.90;;;;;;5051198;28;20483;-55
2023/04/17 05:23:10;;;;;;;5.20;4.00;;;6.60;99.90;;;;;;5051666;28;20940;-54
2023/04/17 05:25:38;;;;;;;4.83;4.33;;;6.50;99.90;;;;;;5048574;28;20529;-56
2023/04/17 05:28:06;;;;;;;5.33;4.07;;;6.50;99.90;;;;;;5045767;28;20550;-55
2023/04/17 05:30:33;;;;;;;4.67;4.27;;;6.40;99.90;;;;;;5051852;28;20483;-54
2023/04/17 05:33:00;;;;;;;6.20;4.10;;;6.30;99.90;;;;;;5052167;28;20438;-54
2023/04/17 05:35:27;;;;;;;4.40;4.00;;;6.20;99.90;;;;;;5051275;28;20444;-54
2023/04/17 05:37:54;;;;;;;6.37;4.27;;;6.10;99.90;;;;;;5050115;28;20590;-54
2023/04/17 05:40:22;;;;;;;4.50;3.93;;;6.30;99.90;;;;;;5049601;28;20441;-54
2023/04/17 05:42:50;;;;;;;16.67;4.90;;;6.60;99.90;;;;;;5051759;28;20547;-54
2023/04/17 05:45:17;;;;;;;5.77;4.30;;;6.60;99.90;;;;;;5051070;28;20883;-54
2023/04/17 05:47:44;;;;;;;3.97;3.63;;;6.60;99.90;;;;;;5050302;28;20547;-54
2023/04/17 05:50:11;;;;;;;4.77;4.20;;;6.60;99.90;;;;;;5051720;28;20473;-54
2023/04/17 05:52:38;;;;;;;5.73;4.47;;;6.70;99.90;;;;;;5051822;28;20520;-55
2023/04/17 05:55:06;;;;;;;4.67;4.23;;;6.50;99.90;;;;;;5051392;28;21036;-54
2023/04/17 05:57:33;;;;;;;4.33;3.93;;;6.60;99.90;;;;;;5051572;28;20520;-54
2023/04/17 06:00:07;;;;;;;4.80;4.40;;;6.70;99.90;;;;;;5051807;28;21028;-53
2023/04/17 06:02:36;;;;;;;5.20;4.20;;;6.90;99.90;;;;;;5052400;28;20448;-54
2023/04/17 06:05:05;;;;;;;5.13;4.63;;;6.90;99.90;;;;;;5052252;28;20442;-53
2023/04/17 06:07:33;;;;;;;5.10;4.70;;;6.90;99.90;;;;;;5050444;28;20519;-54
2023/04/17 06:10:00;;;;;;;4.77;4.33;;;6.90;99.90;;;;;;5049732;28;20482;-54
2023/04/17 06:12:27;;;;;;;4.97;4.57;;;6.90;99.90;;;;;;5049954;28;20893;-54
2023/04/17 06:14:55;;;;;;;4.87;4.37;;;7.00;99.90;;;;;;5049947;28;20441;-54
2023/04/17 06:17:23;;;;;;;4.57;4.17;;;7.00;99.90;;;;;;5049969;28;20472;-54
2023/04/17 06:19:50;;;;;;;3.50;2.90;;;6.90;99.90;;;;;;5047580;28;20473;-54
2023/04/17 06:22:17;;;;;;;5.43;3.50;;;7.00;99.90;;;;;;5050398;28;20967;-53
2023/04/17 06:24:44;;;;;;;3.73;3.43;;;7.00;99.90;;;;;;5051612;28;20821;-54
2023/04/17 06:27:11;;;;;;;4.77;4.00;;;7.10;99.90;;;;;;5051172;28;20477;-55
2023/04/17 06:29:38;;;;;;;5.00;4.60;;;7.20;99.90;;;;;;5051148;28;20708;-54
2023/04/17 06:32:05;;;;;;;9.60;4.17;;;7.10;99.90;;;;;;5050447;28;20442;-54
2023/04/17 06:34:34;;;;;;;5.00;4.50;;;7.10;99.90;;;;;;5051728;28;20620;-54
2023/04/17 06:37:00;;;;;;;4.37;3.93;;;7.10;99.90;;;;;;5050723;28;20445;-55
2023/04/17 06:39:27;;;;;;;4.27;3.80;;;7.10;99.90;;;;;;5051534;28;20532;-54
2023/04/17 06:41:55;;;;;;;4.33;4.00;;;7.10;99.90;;;;;;5051400;28;20477;-54
2023/04/17 06:44:22;;;;;;;5.33;4.07;;;7.20;99.90;;;;;;5050756;28;20454;-54
2023/04/17 06:46:51;;;;;;;5.37;4.23;;;7.20;99.90;;;;;;5050470;28;21027;-54
2023/04/17 06:49:18;;;;;;;4.50;4.10;;;7.30;99.90;;;;;;5051032;28;20480;-54
2023/04/17 06:51:46;;;;;;;4.57;4.23;;;7.30;99.90;;;;;;5050754;28;20866;-54
2023/04/17 06:54:13;;;;;;;6.10;4.47;;;7.30;99.90;;;;;;5051003;28;20909;-54
2023/04/17 06:56:40;;;;;;;30.53;20.80;;;7.30;99.90;;;;;;5051107;28;20488;-54
2023/04/17 06:59:07;;;;;;;7.10;6.40;;;7.40;99.90;;;;;;5050815;28;20894;-54
2023/04/17 07:01:36;;;;;;;5.00;4.60;;;7.40;99.90;;;;;;5033347;28;20537;-55
2023/04/17 07:04:04;;;;;;;4.17;3.87;;;7.30;99.90;;;;;;5030941;28;20552;-54
2023/04/17 07:06:32;;;;;;;5.77;4.43;;;7.00;99.90;;;;;;5032420;28;20465;-55
2023/04/17 07:09:00;;;;;;;5.63;4.90;;;7.00;99.90;;;;;;5050451;28;20468;-54
2023/04/17 07:11:27;;;;;;;5.63;4.53;;;7.10;99.90;;;;;;5050544;28;21095;-54
2023/04/17 07:13:54;;;;;;;4.93;4.53;;;7.20;99.90;;;;;;5050220;28;20559;-56
2023/04/17 07:16:22;;;;;;;8.67;3.93;;;7.30;99.90;;;;;;5050986;28;20496;-55
2023/04/17 07:18:49;;;;;;;7.80;4.30;;;7.30;99.90;;;;;;5050954;28;20552;-55
2023/04/17 07:21:16;;;;;;;4.70;3.70;;;7.20;99.90;;;;;;5050995;28;20521;-54
2023/04/17 07:23:43;;;;;;;5.03;4.53;;;7.20;99.90;;;;;;5050819;28;20532;-55
2023/04/17 07:26:12;;;;;;;5.73;5.23;;;7.30;99.90;;;;;;5051217;28;20525;-54
2023/04/17 07:28:39;;;;;;;5.50;5.00;;;7.40;99.90;;;;;;5050582;28;20493;-54
2023/04/17 07:31:07;;;;;;;5.77;4.70;;;7.50;99.90;;;;;;5050928;28;20913;-54
2023/04/17 07:33:35;;;;;;;5.37;4.10;;;7.40;99.90;;;;;;5050780;28;20449;-54
2023/04/17 07:36:02;;;;;;;4.57;4.17;;;7.50;99.90;;;;;;5050617;28;20464;-55
2023/04/17 07:38:31;;;;;;;4.03;3.50;;;7.50;99.90;;;;;;5050496;28;20829;-54
2023/04/17 07:40:58;;;;;;;4.67;4.27;;;7.60;99.90;;;;;;5050528;28;20512;-55
2023/04/17 07:43:26;;;;;;;4.53;4.10;;;7.60;99.90;;;;;;5049997;28;21039;-54
2023/04/17 07:45:53;;;;;;;4.97;4.37;;;7.60;99.90;;;;;;5050533;28;20489;-55
2023/04/17 07:48:22;;;;;;;4.60;4.20;;;7.60;99.90;;;;;;5048933;28;20556;-55
2023/04/17 07:50:49;;;;;;;4.60;4.13;;;7.50;99.90;;;;;;5048988;28;20481;-55
2023/04/17 07:53:16;;;;;;;5.13;4.60;;;7.50;99.90;;;;;;5048758;28;20453;-55
2023/04/17 07:55:43;;;;;;;5.30;4.60;;;7.60;99.90;;;;;;5048901;28;21010;-55
2023/04/17 07:58:10;;;;;;;5.23;4.80;;;7.50;99.90;;;;;;5045824;28;20553;-55
2023/04/17 08:00:38;;;;;;;4.60;4.20;;;7.60;99.90;;;;;;5045741;28;20465;-55
2023/04/17 08:03:06;;;;;;;5.00;4.60;;;7.60;99.90;;;;;;5049549;28;20919;-54
2023/04/17 08:05:34;;;;;;;6.00;4.73;;;7.70;99.90;;;;;;5053940;28;20507;-54
2023/04/17 08:08:01;;;;;;;5.03;4.53;;;7.70;99.90;;;;;;5053780;28;20508;-55
2023/04/17 08:10:28;;;;;;;5.00;4.50;;;7.70;99.90;;;;;;5052902;28;20532;-55
2023/04/17 08:12:55;;;;;;;5.37;4.33;;;7.70;99.90;;;;;;5054240;28;20520;-54
2023/04/17 08:15:22;;;;;;;4.70;4.30;;;7.80;99.90;;;;;;5053762;28;20861;-54
2023/04/17 08:17:50;;;;;;;4.07;3.77;;;7.90;99.90;;;;;;5053787;28;20545;-53
2023/04/17 08:20:17;;;;;;;3.40;3.10;;;7.90;99.90;;;;;;5053870;28;20874;-54
2023/04/17 08:22:46;;;;;;;4.40;3.83;;;8.00;99.90;;;;;;5053821;28;20477;-54
2023/04/17 08:25:13;;;;;;;4.87;4.30;;;8.00;99.90;;;;;;5053759;28;20952;-55
2023/04/17 08:27:42;;;;;;;5.27;4.77;;;8.00;99.90;;;;;;5053671;28;20515;-55
2023/04/17 08:30:11;;;;;;;5.23;4.73;;;8.00;99.90;;;;;;5053841;28;20525;-54
2023/04/17 08:32:39;;;;;;;4.60;4.20;;;8.10;99.90;;;;;;5053691;28;20537;-55
2023/04/17 08:35:10;;;;;;;3.57;3.27;;;8.10;99.90;;;;;;5053860;28;20446;-54
2023/04/17 08:37:37;;;;;;;4.00;3.67;;;8.10;99.90;;;;;;5053570;28;20561;-55
2023/04/17 08:40:05;;;;;;;4.07;3.67;;;8.10;99.90;;;;;;5053586;28;21454;-54
2023/04/17 08:42:35;;;;;;;3.77;3.20;;;8.00;99.90;;;;;;5052018;28;20445;-55
2023/04/17 08:45:05;;;;;;;3.93;3.53;;;8.00;99.90;;;;;;5051771;28;20437;-55
2023/04/17 08:47:34;;;;;;;3.60;3.30;;;8.00;99.90;;;;;;5052693;28;20536;-54
2023/04/17 08:50:06;;;;;;;4.67;4.00;;;8.10;99.90;;;;;;5053299;28;20433;-55
2023/04/17 08:52:35;;;;;;;4.00;3.70;;;8.00;99.90;;;;;;5053426;28;20433;-54
2023/04/17 08:55:02;;;;;;;3.90;3.50;;;8.10;99.90;;;;;;5053059;28;20479;-55
2023/04/17 08:57:29;;;;;;;3.97;3.57;;;8.00;99.90;;;;;;5052933;28;20511;-55
2023/04/17 08:59:56;;;;;;;4.77;4.37;;;8.00;99.90;;;;;;5053097;28;20438;-54
2023/04/17 09:02:23;;;;;;;4.87;4.43;;;8.00;99.90;;;;;;5036801;28;20529;-54
2023/04/17 09:04:50;;;;;;;4.00;3.70;;;8.10;99.90;;;;;;5033357;28;20463;-54
2023/04/17 09:07:17;;;;;;;4.30;3.90;;;8.10;99.90;;;;;;5032881;28;20545;-54
2023/04/17 09:09:50;;;;;;;3.97;3.67;;;8.10;99.90;;;;;;5032445;28;20450;-54
2023/04/17 09:12:17;;;;;;;3.60;3.30;;;8.10;99.90;;;;;;5033158;28;20506;-54
2023/04/17 09:14:44;;;;;;;5.90;4.30;;;8.00;99.90;;;;;;5032713;28;20470;-55
2023/04/17 09:17:11;;;;;;;4.30;3.70;;;8.10;99.90;;;;;;5031874;28;20450;-54
2023/04/17 09:19:38;;;;;;;4.30;3.80;;;8.10;99.90;;;;;;5032890;28;20470;-54
2023/04/17 09:22:18;;;;;;;3.43;3.13;;;8.20;99.90;;;;;;5032534;28;20481;-53
2023/04/17 09:24:46;;;;;;;4.43;4.00;;;8.20;99.90;;;;;;5032932;28;20454;-54
2023/04/17 09:27:25;;;;;;;3.87;3.53;;;8.30;99.90;;;;;;5031856;28;20988;-54
2023/04/17 09:30:01;;;;;;;3.90;3.60;;;8.40;99.90;;;;;;5032371;28;20442;-55
2023/04/17 09:32:30;;;;;;;4.23;3.70;;;8.40;99.90;;;;;;5032717;28;20482;-54
2023/04/17 09:34:58;;;;;;;5.00;4.60;;;8.40;99.90;;;;;;5032640;28;20443;-54
2023/04/17 09:37:26;;;;;;;4.03;3.73;;;8.40;99.90;;;;;;5032571;28;20458;-56
2023/04/17 09:40:00;;;;;;;4.73;4.33;;;8.40;99.90;;;;;;5032638;28;20536;-54
2023/04/17 09:42:28;;;;;;;5.50;4.03;;;8.40;99.90;;;;;;5032379;28;20482;-55
2023/04/17 09:44:56;;;;;;;3.67;3.37;;;8.50;99.90;;;;;;5031807;28;20482;-54
2023/04/17 09:47:23;;;;;;;3.97;3.50;;;8.40;99.90;;;;;;5032954;28;20566;-54
2023/04/17 09:49:52;;;;;;;4.57;3.70;;;8.40;99.90;;;;;;5032590;28;20481;-54
2023/04/17 09:52:23;;;;;;;3.90;3.60;;;8.40;99.90;;;;;;5032062;28;21006;-54
2023/04/17 09:54:52;;;;;;;3.50;3.00;;;8.30;99.90;;;;;;5032682;28;20625;-54
2023/04/17 09:57:19;;;;;;;3.67;3.30;;;8.20;99.90;;;;;;5031396;28;20976;-55
2023/04/17 09:59:48;;;;;;;3.43;3.03;;;8.30;99.90;;;;;;5032347;28;20446;-54
2023/04/17 10:02:17;;;;;;;3.10;2.77;;;8.40;99.90;;;;;;5031675;28;20447;-55
2023/04/17 10:04:45;;;;;;;3.60;2.87;;;8.40;99.90;;;;;;5031515;28;20846;-54
2023/04/17 10:07:13;;;;;;;3.07;2.87;;;8.50;99.90;;;;;;5031603;28;20478;-54
2023/04/17 10:09:41;;;;;;;3.60;3.10;;;8.50;99.90;;;;;;5031378;28;20474;-55
2023/04/17 10:12:13;;;;;;;3.90;3.60;;;8.60;99.90;;;;;;5031375;28;20470;-54
2023/04/17 10:14:45;;;;;;;3.90;3.47;;;8.40;99.90;;;;;;5031446;28;20447;-55
2023/04/17 10:17:33;;;;;;;4.17;3.60;;;8.40;99.90;;;;;;5030905;28;20454;-56
2023/04/17 10:20:34;;;;;;;3.60;2.93;;;8.40;99.90;;;;;;5031773;28;21076;-55
2023/04/17 10:23:28;;;;;;;6.10;3.70;;;8.40;99.90;;;;;;5031740;28;20442;-54
2023/04/17 10:26:40;;;;;;;9.10;8.20;;;8.50;99.90;;;;;;5031180;28;20465;-54
2023/04/17 10:29:07;;;;;;;17.47;15.57;;;8.60;99.90;;;;;;5031106;28;20542;-54
2023/04/17 10:32:16;;;;;;;4.40;4.00;;;8.70;99.90;;;;;;5037782;28;20586;-56
2023/04/17 10:34:45;;;;;;;3.20;3.00;;;8.60;99.90;;;;;;5048878;28;20441;-54
2023/04/17 10:37:14;;;;;;;3.00;2.70;;;8.50;99.90;;;;;;5049355;28;20446;-54
2023/04/17 10:39:56;;;;;;;3.57;2.87;;;8.50;99.90;;;;;;5050402;28;20473;-55
2023/04/17 10:42:24;;;;;;;3.80;2.90;;;8.50;99.90;;;;;;5050148;28;20438;-55
2023/04/17 10:44:57;;;;;;;2.83;2.53;;;8.50;99.90;;;;;;5049799;28;20492;-55
2023/04/17 10:47:30;;;;;;;2.63;2.43;;;8.50;99.90;;;;;;5048183;28;20522;-54
2023/04/17 10:49:59;;;;;;;2.93;2.67;;;8.50;99.90;;;;;;5050937;28;20939;-55
2023/04/17 10:52:40;;;;;;;2.70;2.50;;;8.50;99.90;;;;;;5051097;28;20481;-55
2023/04/17 10:55:08;;;;;;;3.53;2.73;;;8.50;99.90;;;;;;5050311;28;20884;-54
2023/04/17 10:57:55;;;;;;;3.23;2.87;;;8.60;99.90;;;;;;5049068;28;20829;-54
2023/04/17 11:00:30;;;;;;;3.70;3.40;;;8.60;99.90;;;;;;5050806;28;20532;-54
2023/04/17 11:02:58;;;;;;;4.30;3.80;;;8.70;99.90;;;;;;5050791;28;20438;-54
2023/04/17 11:05:26;;;;;;;2.73;2.37;;;8.70;99.90;;;;;;5050966;28;20472;-54
2023/04/17 11:07:53;;;;;;;2.80;2.30;;;8.80;99.90;;;;;;5050760;28;20504;-54
2023/04/17 11:10:21;;;;;;;2.60;2.33;;;8.80;99.90;;;;;;5051159;28;20476;-55
2023/04/17 11:12:49;;;;;;;2.80;2.60;;;8.80;99.90;;;;;;5050054;28;20538;-56
2023/04/17 11:15:16;;;;;;;3.70;2.70;;;8.80;99.90;;;;;;5049873;28;20936;-55
2023/04/17 11:17:47;;;;;;;3.30;3.00;;;8.80;99.90;;;;;;5050242;28;20548;-55
2023/04/17 11:20:18;;;;;;;3.07;2.70;;;8.80;99.90;;;;;;5050277;28;20823;-55
2023/04/17 11:22:46;;;;;;;5.27;2.90;;;8.90;99.90;;;;;;5050534;28;20488;-54
2023/04/17 11:25:21;;;;;;;4.37;3.97;;;8.90;99.90;;;;;;5051046;28;20529;-55
2023/04/17 11:27:51;;;;;;;3.47;3.17;;;8.90;99.90;;;;;;5051047;28;20465;-54
2023/04/17 11:30:28;;;;;;;3.37;3.07;;;9.00;99.90;;;;;;5050120;28;20443;-55
2023/04/17 11:32:58;;;;;;;1.83;1.73;;;9.00;99.90;;;;;;5050141;28;20480;-55
2023/04/17 11:35:28;;;;;;;3.67;2.73;;;9.00;99.90;;;;;;5050287;28;20983;-54
2023/04/17 11:38:11;;;;;;;3.10;2.80;;;9.00;99.90;;;;;;5050165;28;20515;-55
2023/04/17 11:40:43;;;;;;;3.57;2.73;;;8.90;99.90;;;;;;5054545;28;20975;-55
2023/04/17 11:43:11;;;;;;;2.60;2.37;;;8.80;99.90;;;;;;5053858;28;20441;-54
2023/04/17 11:45:40;;;;;;;3.93;2.73;;;8.90;99.90;;;;;;5054379;28;20452;-55
2023/04/17 11:48:09;;;;;;;2.57;2.23;;;8.90;99.90;;;;;;5054175;28;20477;-54
2023/04/17 11:50:36;;;;;;;2.33;2.13;;;9.00;99.90;;;;;;5054398;28;20440;-56
2023/04/17 11:53:04;;;;;;;2.80;2.40;;;9.00;99.90;;;;;;5054419;28;20923;-54
2023/04/17 11:55:34;;;;;;;3.47;2.67;;;9.00;99.90;;;;;;5054734;28;20492;-55
2023/04/17 11:58:02;;;;;;;3.60;2.80;;;9.10;99.90;;;;;;5054319;28;20474;-55
2023/04/17 12:00:30;;;;;;;3.10;2.90;;;9.10;99.90;;;;;;5054113;28;20979;-56
2023/04/17 12:02:58;;;;;;;3.47;3.17;;;9.10;99.90;;;;;;5054528;28;20499;-55
2023/04/17 12:05:26;;;;;;;3.00;2.70;;;9.10;99.90;;;;;;5054497;28;20514;-54
2023/04/17 12:08:04;;;;;;;3.40;3.00;;;9.20;99.90;;;;;;5053838;28;20472;-55
2023/04/17 12:10:40;;;;;;;5.27;4.00;;;9.20;99.90;;;;;;5054720;28;20441;-55
2023/04/17 12:13:07;;;;;;;3.60;3.20;;;9.20;99.90;;;;;;5053907;28;21089;-55
2023/04/17 12:15:34;;;;;;;2.90;2.60;;;9.20;99.90;;;;;;5053404;28;20609;-56
2023/04/17 12:18:04;;;;;;;2.83;2.20;;;9.10;99.90;;;;;;5053652;28;20465;-55
2023/04/17 12:20:32;;;;;;;3.77;2.87;;;9.20;99.90;;;;;;5053995;28;20465;-54
2023/04/17 12:22:59;;;;;;;2.70;2.50;;;9.20;99.90;;;;;;5054125;28;20437;-54
2023/04/17 12:25:26;;;;;;;3.17;2.87;;;9.20;99.90;;;;;;5053245;28;20536;-55
2023/04/17 12:27:55;;;;;;;2.47;2.27;;;9.20;99.90;;;;;;5053516;28;20892;-54
2023/04/17 12:30:23;;;;;;;2.70;2.47;;;9.20;99.90;;;;;;5053283;28;20446;-54
2023/04/17 12:32:51;;;;;;;2.37;2.17;;;9.20;99.90;;;;;;5053647;28;21045;-55
2023/04/17 12:35:18;;;;;;;3.20;2.90;;;9.20;99.90;;;;;;5053756;28;20449;-54
2023/04/17 12:37:47;;;;;;;3.60;2.27;;;9.20;99.90;;;;;;5053444;28;20465;-53
2023/04/17 12:40:16;;;;;;;2.97;2.50;;;9.30;99.90;;;;;;5053444;28;20456;-54
2023/04/17 12:42:42;;;;;;;3.83;2.40;;;9.30;99.90;;;;;;5053207;28;20441;-54
2023/04/17 12:45:11;;;;;;;3.97;3.00;;;9.40;99.90;;;;;;5053024;28;20898;-54
2023/04/17 12:47:38;;;;;;;2.90;2.60;;;9.40;99.90;;;;;;5052824;28;20474;-55
2023/04/17 12:50:06;;;;;;;3.87;3.27;;;9.30;99.90;;;;;;5053188;28;20441;-55
2023/04/17 12:52:33;;;;;;;6.23;2.90;;;9.30;99.90;;;;;;5053486;28;20572;-55
2023/04/17 12:55:00;;;;;;;3.87;3.10;;;9.30;99.90;;;;;;5053422;28;20525;-55
2023/04/17 12:57:27;;;;;;;3.57;3.00;;;9.40;99.90;;;;;;5052494;28;20523;-54
2023/04/17 12:59:54;;;;;;;4.00;3.50;;;9.30;99.90;;;;;;5051293;28;20521;-54
2023/04/17 13:02:23;;;;;;;4.77;3.20;;;9.30;99.90;;;;;;5052369;28;20466;-55
2023/04/17 13:04:50;;;;;;;3.70;2.80;;;9.30;99.90;;;;;;5051966;28;20448;-55